Brunswick Golden Isles Airport
KBQK : now visible

Airfield :











YOU CAN JOIN US ON...

 
LOGIN :

Register | Disclaimer

   EN    FR    IT 

 









Legend :    VFR   Marginal VFR   IFR   Intensive IFR   Very Intensive IFR
Visi :
Ceiling :
>= 8 km
>= 3000ft
5 to 8 km
1000 to 3000 ft
1500m to 5 km
500 to 1000 ft
800 to 1500m
200 to 500 ft
< 800m
< 200 ft
Symbols :   Thunderstorms  Fog  Heavy snow  Heavy precipitations  Wind > 20 kt






- Airport Elevation : 26 ft
- IATA code : BQK


KBQK - Brunswick Golden Isles

CURRENT METAR :
  • 212355Z AUTO 32014G20KT 10SM BKN008 OVC013 18/17 A2991 RMK AO2 LTG DSNT SE T01830172 10281 20180 402810179 60033

EXPIRED METARs :
  • 212335Z AUTO 28007KT 10SM BKN012 BKN018 20/19 A2988 RMK AO2 T02000191
  • 212315Z AUTO 29006KT 10SM SCT020 SCT060 SCT120 20/19 A2987 RMK AO2 LTG DSNT SE AND S T02000192
  • 212255Z AUTO 28008KT 10SM BKN060 BKN120 20/19 A2986 RMK AO2 LTG DSNT SE T02010191
  • 212235Z AUTO 27008KT 10SM VCTS BKN060 BKN070 BKN120 20/19 A2986 RMK AO2 LTG DSNT E THRU SW T01990189
  • 212215Z AUTO 26006KT 10SM SCT060 SCT075 BKN110 20/19 A2985 RMK AO2 LTG DSNT E THRU SW T02000191
  • 212155Z AUTO 27007KT 10SM -VCTSRA SCT031 BKN080 OVC095 20/19 A2984 RMK AO2 LTG DSNT E THRU SW P0033 T01980189
  • 212135Z AUTO 28010G16KT 4SM VCTSRA BR SCT010 BKN050 OVC070 20/19 A2983 RMK AO2 LTG DSNT ALQDS P0032 T01980189
  • 212115Z AUTO 28014G33KT 2SM +VCTSRA SCT010 BKN038 OVC044 22/19 A2985 RMK AO2 LTG DSNT W THRU NE P0018 T02150185
  • 212055Z AUTO 24015G28KT 10SM TS BKN041 BKN048 OVC050 26/18 A2981 RMK AO2 LTG DSNT W THRU NE T02590179
  • 212035Z AUTO 23017G23KT 10SM VCTS SCT041 SCT046 BKN050 28/18 A2981 RMK AO2 LTG DSNT N AND NW T02760182
  • 212015Z AUTO 23021G26KT 10SM SCT035 BKN043 OVC060 27/18 A2982 RMK AO2 LTG DSNT NW T02700180
  • 211955Z AUTO 22012KT 10SM SCT034 SCT042 BKN048 26/19 A2983 RMK AO2 LTG DSNT NW T02650191
  • 211915Z AUTO 27008KT 10SM CLR 26/19 A2986 RMK AO2 T02560187

TAF N/A
KZJX FIR / North America



MET'MAP, your aeronautical weather chart ! - Copyright ORBIFLY December 2007 - Disclaimer

ORBIFLY MET'MAP TEAM :

Programming & Development : Alexandra Zaïnal
Original concept : Baudouin d'Aumeries
Technical & hardware support : Manuel Goepfert
Assistance : Marc-Olivier Méhu




SOURCES & CREDITS :

   NOAA       Earth
Advisory